sensor_id;sensor_type;location;lat;lon;timestamp;P1;durP1;ratioP1;P2;durP2;ratioP2
9166;SDS011;4618;48.818;9.088;2024-03-08T00:15:16;38.23;;;26.97;;
9166;SDS011;4618;48.818;9.088;2024-03-08T00:18:20;40.77;;;26.40;;
9166;SDS011;4618;48.818;9.088;2024-03-08T00:58:47;39.80;;;27.20;;
9166;SDS011;4618;48.818;9.088;2024-03-08T01:01:25;41.97;;;26.67;;
9166;SDS011;4618;48.818;9.088;2024-03-08T01:04:20;41.50;;;26.93;;
9166;SDS011;4618;48.818;9.088;2024-03-08T01:09:58;44.37;;;27.40;;
9166;SDS011;4618;48.818;9.088;2024-03-08T01:15:51;37.13;;;26.90;;
9166;SDS011;4618;48.818;9.088;2024-03-08T01:18:44;39.40;;;26.27;;
9166;SDS011;4618;48.818;9.088;2024-03-08T01:31:21;37.63;;;25.03;;
9166;SDS011;4618;48.818;9.088;2024-03-08T01:34:15;39.43;;;25.47;;
9166;SDS011;4618;48.818;9.088;2024-03-08T01:52:59;38.77;;;24.70;;
9166;SDS011;4618;48.818;9.088;2024-03-08T01:55:56;37.03;;;24.37;;
9166;SDS011;4618;48.818;9.088;2024-03-08T02:11:12;41.30;;;25.97;;
9166;SDS011;4618;48.818;9.088;2024-03-08T02:22:22;40.73;;;26.40;;
9166;SDS011;4618;48.818;9.088;2024-03-08T02:25:24;40.60;;;26.87;;
9166;SDS011;4618;48.818;9.088;2024-03-08T02:31:45;39.23;;;26.23;;
9166;SDS011;4618;48.818;9.088;2024-03-08T02:34:31;38.57;;;25.63;;
9166;SDS011;4618;48.818;9.088;2024-03-08T02:43:42;41.23;;;26.43;;
9166;SDS011;4618;48.818;9.088;2024-03-08T02:48:48;40.10;;;26.53;;
9166;SDS011;4618;48.818;9.088;2024-03-08T02:57:56;37.27;;;24.60;;
9166;SDS011;4618;48.818;9.088;2024-03-08T03:00:49;36.53;;;23.30;;
9166;SDS011;4618;48.818;9.088;2024-03-08T03:03:49;37.70;;;24.07;;
9166;SDS011;4618;48.818;9.088;2024-03-08T03:09:07;45.43;;;29.13;;
9166;SDS011;4618;48.818;9.088;2024-03-08T03:15:27;37.60;;;24.63;;
9166;SDS011;4618;48.818;9.088;2024-03-08T03:33:19;42.73;;;26.17;;
9166;SDS011;4618;48.818;9.088;2024-03-08T03:41:59;42.00;;;24.67;;
9166;SDS011;4618;48.818;9.088;2024-03-08T03:44:58;41.60;;;26.53;;
9166;SDS011;4618;48.818;9.088;2024-03-08T04:33:55;37.90;;;23.77;;
9166;SDS011;4618;48.818;9.088;2024-03-08T04:40:00;34.73;;;22.37;;
9166;SDS011;4618;48.818;9.088;2024-03-08T04:43:04;36.00;;;23.80;;
9166;SDS011;4618;48.818;9.088;2024-03-08T04:58:54;38.90;;;25.57;;
9166;SDS011;4618;48.818;9.088;2024-03-08T05:27:01;38.17;;;24.53;;
9166;SDS011;4618;48.818;9.088;2024-03-08T05:40:24;38.93;;;23.40;;
9166;SDS011;4618;48.818;9.088;2024-03-08T05:49:17;38.63;;;25.03;;
9166;SDS011;4618;48.818;9.088;2024-03-08T05:52:53;41.03;;;25.67;;
9166;SDS011;4618;48.818;9.088;2024-03-08T05:56:12;39.80;;;25.40;;
9166;SDS011;4618;48.818;9.088;2024-03-08T06:25:55;46.20;;;27.40;;
9166;SDS011;4618;48.818;9.088;2024-03-08T06:39:51;43.30;;;26.97;;
9166;SDS011;4618;48.818;9.088;2024-03-08T07:02:13;46.97;;;29.73;;
9166;SDS011;4618;48.818;9.088;2024-03-08T07:08:04;42.30;;;27.93;;
9166;SDS011;4618;48.818;9.088;2024-03-08T07:17:05;42.30;;;29.27;;
9166;SDS011;4618;48.818;9.088;2024-03-08T07:19:55;42.33;;;28.07;;
9166;SDS011;4618;48.818;9.088;2024-03-08T07:55:14;29.97;;;21.50;;
9166;SDS011;4618;48.818;9.088;2024-03-08T08:43:00;21.37;;;17.20;;
9166;SDS011;4618;48.818;9.088;2024-03-08T08:48:04;21.53;;;17.43;;
9166;SDS011;4618;48.818;9.088;2024-03-08T08:50:44;21.47;;;17.73;;
9166;SDS011;4618;48.818;9.088;2024-03-08T08:53:32;21.03;;;17.20;;
9166;SDS011;4618;48.818;9.088;2024-03-08T08:59:37;20.93;;;16.93;;
9166;SDS011;4618;48.818;9.088;2024-03-08T09:02:06;22.33;;;17.77;;
9166;SDS011;4618;48.818;9.088;2024-03-08T09:07:51;22.50;;;17.27;;
9166;SDS011;4618;48.818;9.088;2024-03-08T09:10:27;22.50;;;16.87;;
9166;SDS011;4618;48.818;9.088;2024-03-08T09:13:17;19.37;;;16.20;;
9166;SDS011;4618;48.818;9.088;2024-03-08T09:19:13;20.80;;;16.60;;
9166;SDS011;4618;48.818;9.088;2024-03-08T09:27:41;21.50;;;16.97;;
9166;SDS011;4618;48.818;9.088;2024-03-08T10:55:32;18.60;;;14.97;;
9166;SDS011;4618;48.818;9.088;2024-03-08T10:58:42;17.50;;;14.97;;
9166;SDS011;4618;48.818;9.088;2024-03-08T11:01:20;16.17;;;13.83;;
9166;SDS011;4618;48.818;9.088;2024-03-08T11:03:56;21.07;;;16.87;;
9166;SDS011;4618;48.818;9.088;2024-03-08T11:57:45;15.87;;;13.53;;
9166;SDS011;4618;48.818;9.088;2024-03-08T12:00:15;16.33;;;14.70;;
9166;SDS011;4618;48.818;9.088;2024-03-08T12:03:07;15.27;;;13.70;;
9166;SDS011;4618;48.818;9.088;2024-03-08T12:05:37;15.90;;;14.30;;
9166;SDS011;4618;48.818;9.088;2024-03-08T12:08:04;15.43;;;13.80;;
9166;SDS011;4618;48.818;9.088;2024-03-08T12:10:32;15.40;;;13.93;;
9166;SDS011;4618;48.818;9.088;2024-03-08T12:13:00;15.63;;;14.03;;
9166;SDS011;4618;48.818;9.088;2024-03-08T12:15:28;14.77;;;13.17;;
9166;SDS011;4618;48.818;9.088;2024-03-08T12:18:03;16.60;;;14.30;;
9166;SDS011;4618;48.818;9.088;2024-03-08T12:20:32;17.37;;;15.57;;
9166;SDS011;4618;48.818;9.088;2024-03-08T12:23:14;16.67;;;15.07;;
9166;SDS011;4618;48.818;9.088;2024-03-08T12:41:29;16.60;;;14.93;;
9166;SDS011;4618;48.818;9.088;2024-03-08T12:44:02;16.47;;;14.77;;
9166;SDS011;4618;48.818;9.088;2024-03-08T12:46:47;17.27;;;14.40;;
9166;SDS011;4618;48.818;9.088;2024-03-08T12:49:25;17.07;;;15.03;;
9166;SDS011;4618;48.818;9.088;2024-03-08T12:51:52;16.90;;;15.23;;
9166;SDS011;4618;48.818;9.088;2024-03-08T12:54:18;16.67;;;14.97;;
9166;SDS011;4618;48.818;9.088;2024-03-08T12:56:58;16.50;;;14.87;;
9166;SDS011;4618;48.818;9.088;2024-03-08T12:59:34;16.97;;;15.27;;
9166;SDS011;4618;48.818;9.088;2024-03-08T13:02:32;17.27;;;15.43;;
9166;SDS011;4618;48.818;9.088;2024-03-08T13:04:58;17.73;;;15.93;;
9166;SDS011;4618;48.818;9.088;2024-03-08T13:07:29;17.33;;;15.63;;
9166;SDS011;4618;48.818;9.088;2024-03-08T13:10:02;18.20;;;16.27;;
9166;SDS011;4618;48.818;9.088;2024-03-08T13:12:47;18.27;;;16.13;;
9166;SDS011;4618;48.818;9.088;2024-03-08T13:15:27;17.60;;;15.70;;
9166;SDS011;4618;48.818;9.088;2024-03-08T13:21:38;17.23;;;15.53;;
9166;SDS011;4618;48.818;9.088;2024-03-08T13:24:07;19.00;;;15.73;;
9166;SDS011;4618;48.818;9.088;2024-03-08T13:26:39;16.37;;;14.73;;
9166;SDS011;4618;48.818;9.088;2024-03-08T13:32:06;18.60;;;16.13;;
9166;SDS011;4618;48.818;9.088;2024-03-08T13:34:32;17.03;;;15.23;;
9166;SDS011;4618;48.818;9.088;2024-03-08T13:37:00;17.33;;;15.43;;
9166;SDS011;4618;48.818;9.088;2024-03-08T13:40:01;17.90;;;15.67;;
9166;SDS011;4618;48.818;9.088;2024-03-08T13:42:30;19.03;;;16.87;;
9166;SDS011;4618;48.818;9.088;2024-03-08T13:44:56;18.53;;;16.47;;
9166;SDS011;4618;48.818;9.088;2024-03-08T13:53:11;17.57;;;15.77;;
9166;SDS011;4618;48.818;9.088;2024-03-08T13:55:37;18.10;;;15.60;;
9166;SDS011;4618;48.818;9.088;2024-03-08T13:58:03;19.27;;;16.43;;
9166;SDS011;4618;48.818;9.088;2024-03-08T14:00:37;18.03;;;15.63;;
9166;SDS011;4618;48.818;9.088;2024-03-08T14:06:09;18.33;;;16.43;;
9166;SDS011;4618;48.818;9.088;2024-03-08T14:08:53;18.07;;;16.27;;
9166;SDS011;4618;48.818;9.088;2024-03-08T14:11:36;16.83;;;15.13;;
9166;SDS011;4618;48.818;9.088;2024-03-08T14:14:33;17.33;;;15.53;;
9166;SDS011;4618;48.818;9.088;2024-03-08T14:20:13;16.97;;;15.17;;
9166;SDS011;4618;48.818;9.088;2024-03-08T14:22:39;17.03;;;15.27;;
9166;SDS011;4618;48.818;9.088;2024-03-08T14:25:25;16.37;;;14.43;;
9166;SDS011;4618;48.818;9.088;2024-03-08T14:27:55;16.77;;;15.00;;
9166;SDS011;4618;48.818;9.088;2024-03-08T14:30:34;17.73;;;15.83;;
9166;SDS011;4618;48.818;9.088;2024-03-08T14:33:05;16.57;;;14.93;;
9166;SDS011;4618;48.818;9.088;2024-03-08T14:35:34;19.13;;;15.10;;
9166;SDS011;4618;48.818;9.088;2024-03-08T14:38:03;17.07;;;15.27;;
9166;SDS011;4618;48.818;9.088;2024-03-08T14:40:29;18.50;;;14.70;;
9166;SDS011;4618;48.818;9.088;2024-03-08T14:42:58;17.23;;;15.13;;
9166;SDS011;4618;48.818;9.088;2024-03-08T14:48:30;17.63;;;15.57;;
9166;SDS011;4618;48.818;9.088;2024-03-08T14:51:00;17.13;;;14.73;;
9166;SDS011;4618;48.818;9.088;2024-03-08T14:53:33;16.77;;;14.50;;
9166;SDS011;4618;48.818;9.088;2024-03-08T14:56:02;21.17;;;14.83;;
9166;SDS011;4618;48.818;9.088;2024-03-08T14:58:33;18.57;;;15.63;;
9166;SDS011;4618;48.818;9.088;2024-03-08T15:03:59;17.23;;;15.43;;
9166;SDS011;4618;48.818;9.088;2024-03-08T15:06:33;17.30;;;15.13;;
9166;SDS011;4618;48.818;9.088;2024-03-08T15:09:02;17.30;;;15.50;;
9166;SDS011;4618;48.818;9.088;2024-03-08T15:14:44;17.57;;;15.00;;
9166;SDS011;4618;48.818;9.088;2024-03-08T15:17:18;16.70;;;14.27;;
9166;SDS011;4618;48.818;9.088;2024-03-08T15:19:49;16.63;;;14.87;;
9166;SDS011;4618;48.818;9.088;2024-03-08T15:25:28;17.70;;;15.80;;
9166;SDS011;4618;48.818;9.088;2024-03-08T15:28:02;19.87;;;16.07;;
9166;SDS011;4618;48.818;9.088;2024-03-08T15:30:39;19.60;;;15.40;;
9166;SDS011;4618;48.818;9.088;2024-03-08T15:36:18;18.97;;;16.00;;
9166;SDS011;4618;48.818;9.088;2024-03-08T15:39:14;17.47;;;15.17;;
9166;SDS011;4618;48.818;9.088;2024-03-08T15:41:47;18.70;;;15.37;;
9166;SDS011;4618;48.818;9.088;2024-03-08T15:47:35;19.40;;;16.10;;
9166;SDS011;4618;48.818;9.088;2024-03-08T15:53:15;19.60;;;16.47;;
9166;SDS011;4618;48.818;9.088;2024-03-08T15:56:07;17.10;;;15.00;;
9166;SDS011;4618;48.818;9.088;2024-03-08T16:04:53;17.50;;;15.50;;
9166;SDS011;4618;48.818;9.088;2024-03-08T16:11:12;17.13;;;14.87;;
9166;SDS011;4618;48.818;9.088;2024-03-08T16:17:01;19.77;;;15.43;;
9166;SDS011;4618;48.818;9.088;2024-03-08T16:19:47;18.70;;;14.80;;
9166;SDS011;4618;48.818;9.088;2024-03-08T16:22:13;17.80;;;15.90;;
9166;SDS011;4618;48.818;9.088;2024-03-08T16:24:43;19.20;;;15.47;;
9166;SDS011;4618;48.818;9.088;2024-03-08T16:27:16;18.97;;;16.33;;
9166;SDS011;4618;48.818;9.088;2024-03-08T16:29:42;19.43;;;16.23;;
9166;SDS011;4618;48.818;9.088;2024-03-08T16:32:19;19.70;;;15.70;;
9166;SDS011;4618;48.818;9.088;2024-03-08T16:35:18;16.50;;;14.73;;
9166;SDS011;4618;48.818;9.088;2024-03-08T16:54:26;20.43;;;15.57;;
9166;SDS011;4618;48.818;9.088;2024-03-08T16:57:06;19.70;;;14.90;;
9166;SDS011;4618;48.818;9.088;2024-03-08T17:00:01;19.70;;;14.30;;
9166;SDS011;4618;48.818;9.088;2024-03-08T17:06:31;20.17;;;15.50;;
9166;SDS011;4618;48.818;9.088;2024-03-08T17:40:40;23.00;;;16.13;;
9166;SDS011;4618;48.818;9.088;2024-03-08T17:43:13;20.77;;;16.03;;
9166;SDS011;4618;48.818;9.088;2024-03-08T17:50:53;21.77;;;15.63;;
9166;SDS011;4618;48.818;9.088;2024-03-08T17:56:27;21.07;;;16.13;;
9166;SDS011;4618;48.818;9.088;2024-03-08T17:59:19;19.73;;;15.83;;
9166;SDS011;4618;48.818;9.088;2024-03-08T18:08:16;18.57;;;15.20;;
9166;SDS011;4618;48.818;9.088;2024-03-08T18:11:04;19.83;;;15.33;;
9166;SDS011;4618;48.818;9.088;2024-03-08T18:14:01;18.17;;;14.03;;
9166;SDS011;4618;48.818;9.088;2024-03-08T18:16:40;23.63;;;14.27;;
9166;SDS011;4618;48.818;9.088;2024-03-08T18:19:13;17.53;;;13.87;;
9166;SDS011;4618;48.818;9.088;2024-03-08T18:21:47;19.13;;;13.87;;
9166;SDS011;4618;48.818;9.088;2024-03-08T18:27:36;16.13;;;12.33;;
9166;SDS011;4618;48.818;9.088;2024-03-08T18:30:03;16.53;;;11.97;;
9166;SDS011;4618;48.818;9.088;2024-03-08T18:32:48;16.63;;;12.27;;
9166;SDS011;4618;48.818;9.088;2024-03-08T18:35:29;14.73;;;11.97;;
9166;SDS011;4618;48.818;9.088;2024-03-08T18:37:59;16.17;;;12.03;;
9166;SDS011;4618;48.818;9.088;2024-03-08T18:40:26;13.93;;;12.13;;
9166;SDS011;4618;48.818;9.088;2024-03-08T18:42:59;16.03;;;11.87;;
9166;SDS011;4618;48.818;9.088;2024-03-08T19:10:41;15.60;;;11.20;;
9166;SDS011;4618;48.818;9.088;2024-03-08T19:13:08;14.13;;;10.90;;
9166;SDS011;4618;48.818;9.088;2024-03-08T19:15:36;14.20;;;10.80;;
9166;SDS011;4618;48.818;9.088;2024-03-08T19:18:03;13.87;;;11.20;;
9166;SDS011;4618;48.818;9.088;2024-03-08T19:20:38;14.73;;;11.80;;
9166;SDS011;4618;48.818;9.088;2024-03-08T21:26:51;15.37;;;11.47;;
9166;SDS011;4618;48.818;9.088;2024-03-08T21:29:18;14.37;;;11.67;;
9166;SDS011;4618;48.818;9.088;2024-03-08T21:31:48;16.60;;;12.53;;
9166;SDS011;4618;48.818;9.088;2024-03-08T21:34:16;17.27;;;12.37;;
9166;SDS011;4618;48.818;9.088;2024-03-08T21:36:42;14.70;;;12.00;;
9166;SDS011;4618;48.818;9.088;2024-03-08T21:39:09;16.70;;;13.33;;
9166;SDS011;4618;48.818;9.088;2024-03-08T21:41:36;16.43;;;13.23;;
9166;SDS011;4618;48.818;9.088;2024-03-08T21:44:03;17.70;;;13.33;;
9166;SDS011;4618;48.818;9.088;2024-03-08T21:46:29;17.33;;;13.73;;
9166;SDS011;4618;48.818;9.088;2024-03-08T21:48:55;19.50;;;15.17;;
9166;SDS011;4618;48.818;9.088;2024-03-08T21:51:22;17.37;;;13.77;;
9166;SDS011;4618;48.818;9.088;2024-03-08T21:53:48;21.73;;;14.70;;
9166;SDS011;4618;48.818;9.088;2024-03-08T21:56:14;18.23;;;15.30;;
9166;SDS011;4618;48.818;9.088;2024-03-08T21:58:40;19.00;;;13.53;;
9166;SDS011;4618;48.818;9.088;2024-03-08T22:01:07;16.10;;;13.27;;
9166;SDS011;4618;48.818;9.088;2024-03-08T22:03:34;16.87;;;13.33;;
9166;SDS011;4618;48.818;9.088;2024-03-08T22:06:01;18.73;;;14.57;;
9166;SDS011;4618;48.818;9.088;2024-03-08T22:08:35;18.57;;;14.73;;
9166;SDS011;4618;48.818;9.088;2024-03-08T22:11:03;17.10;;;13.47;;
9166;SDS011;4618;48.818;9.088;2024-03-08T22:13:29;19.07;;;13.83;;
9166;SDS011;4618;48.818;9.088;2024-03-08T22:15:56;18.10;;;13.60;;
9166;SDS011;4618;48.818;9.088;2024-03-08T22:18:22;19.00;;;15.80;;
9166;SDS011;4618;48.818;9.088;2024-03-08T22:20:48;20.17;;;15.93;;
9166;SDS011;4618;48.818;9.088;2024-03-08T22:23:14;20.80;;;15.80;;
9166;SDS011;4618;48.818;9.088;2024-03-08T22:25:41;20.30;;;14.90;;
9166;SDS011;4618;48.818;9.088;2024-03-08T22:28:07;19.77;;;15.30;;
9166;SDS011;4618;48.818;9.088;2024-03-08T22:30:34;21.23;;;15.37;;
9166;SDS011;4618;48.818;9.088;2024-03-08T22:33:00;19.60;;;15.07;;
9166;SDS011;4618;48.818;9.088;2024-03-08T22:35:27;19.47;;;15.97;;
9166;SDS011;4618;48.818;9.088;2024-03-08T22:37:53;20.43;;;15.97;;
9166;SDS011;4618;48.818;9.088;2024-03-08T22:40:19;20.83;;;16.03;;
9166;SDS011;4618;48.818;9.088;2024-03-08T22:42:48;20.33;;;16.17;;
9166;SDS011;4618;48.818;9.088;2024-03-08T22:45:16;21.60;;;15.97;;
9166;SDS011;4618;48.818;9.088;2024-03-08T22:47:43;21.43;;;15.57;;
9166;SDS011;4618;48.818;9.088;2024-03-08T22:50:11;21.23;;;16.10;;
9166;SDS011;4618;48.818;9.088;2024-03-08T22:52:37;22.13;;;16.70;;
9166;SDS011;4618;48.818;9.088;2024-03-08T22:55:05;18.67;;;14.47;;
9166;SDS011;4618;48.818;9.088;2024-03-08T22:57:34;19.67;;;13.70;;
9166;SDS011;4618;48.818;9.088;2024-03-08T23:00:00;18.27;;;14.20;;
9166;SDS011;4618;48.818;9.088;2024-03-08T23:02:26;20.37;;;14.37;;
9166;SDS011;4618;48.818;9.088;2024-03-08T23:04:52;19.33;;;14.50;;
9166;SDS011;4618;48.818;9.088;2024-03-08T23:07:22;20.67;;;14.73;;
9166;SDS011;4618;48.818;9.088;2024-03-08T23:09:49;17.83;;;14.30;;
9166;SDS011;4618;48.818;9.088;2024-03-08T23:12:16;20.90;;;15.57;;
9166;SDS011;4618;48.818;9.088;2024-03-08T23:14:42;20.40;;;15.03;;
9166;SDS011;4618;48.818;9.088;2024-03-08T23:17:08;20.27;;;15.10;;
9166;SDS011;4618;48.818;9.088;2024-03-08T23:19:35;22.17;;;15.30;;
9166;SDS011;4618;48.818;9.088;2024-03-08T23:22:04;20.77;;;14.97;;
9166;SDS011;4618;48.818;9.088;2024-03-08T23:24:36;21.23;;;14.77;;
9166;SDS011;4618;48.818;9.088;2024-03-08T23:27:02;20.53;;;15.37;;
9166;SDS011;4618;48.818;9.088;2024-03-08T23:29:29;20.93;;;14.80;;
9166;SDS011;4618;48.818;9.088;2024-03-08T23:31:55;20.10;;;15.30;;
9166;SDS011;4618;48.818;9.088;2024-03-08T23:34:21;19.27;;;14.57;;
9166;SDS011;4618;48.818;9.088;2024-03-08T23:36:49;23.30;;;16.00;;
9166;SDS011;4618;48.818;9.088;2024-03-08T23:39:15;19.93;;;14.70;;
9166;SDS011;4618;48.818;9.088;2024-03-08T23:41:43;20.13;;;15.50;;
9166;SDS011;4618;48.818;9.088;2024-03-08T23:44:12;18.40;;;14.10;;
9166;SDS011;4618;48.818;9.088;2024-03-08T23:46:38;23.93;;;17.27;;
9166;SDS011;4618;48.818;9.088;2024-03-08T23:49:06;23.03;;;16.27;;
9166;SDS011;4618;48.818;9.088;2024-03-08T23:51:32;21.50;;;15.33;;
9166;SDS011;4618;48.818;9.088;2024-03-08T23:53:59;20.93;;;15.23;;
9166;SDS011;4618;48.818;9.088;2024-03-08T23:56:29;21.73;;;15.17;;
9166;SDS011;4618;48.818;9.088;2024-03-08T23:58:55;21.07;;;14.93;;
